Atwater, Minnesota
Current Conditions -  °F | °C
As of 1:53 AM on Monday 24 Nov 2014 (Local Time) from KLJF Reporting Station
Overcast Overcast  
Wind Chill: 14°   Ceiling: 700
Heat Index: 27°   Visibility: 10mi
Dew Point: 25°   Wind: 17mph
Humidity: 93%   Direction: 300°WNW
Pressure: 29.38"   Gusts: 26mph
Location:  45.14°N, 94.78°W
Report Text: KLJF 240753Z AUTO 30015G23KT 10SM OVC007 M03/M04 A2938 RMK AO2
Loading
Personal Weather Stations






























Interactive Weather Map New forecast layout! Learn more

10-Day Weather Forecast

Advertisements
Track Severe Weather on mobile